Time;durP1;ratioP1;P1;durP2;ratioP2;P2;SDS_P1;SDS_P2;PMS_P1;PMS_P2;Temp;Humidity;BMP_temperature;BMP_pressure;BME280_temperature;BME280_humidity;BME280_pressure;Samples;Min_cycle;Max_cycle;Signal;HPM_P1;HPM_P2
2022/06/22 00:01:26;;;;;;;;;;;;;;;-149.78;100.00;49953.19;5073501;28;19932;-69
2022/06/22 00:03:53;;;;;;;;;;;;;;;-149.78;100.00;49974.72;5063542;28;19935;-69
2022/06/22 00:06:28;;;;;;;;;;;;;;;-149.78;100.00;49994.25;5070484;28;20625;-69
2022/06/22 00:08:53;;;;;;;;;;;;;;;-149.78;100.00;50009.91;5072906;28;19916;-69
2022/06/22 00:11:20;;;;;;;;;;;;;;;-149.78;100.00;50006.00;5070790;28;19932;-69
2022/06/22 00:13:54;;;;;;;;;;;;;;;-149.78;100.00;49994.25;5070843;28;19924;-69
2022/06/22 00:16:25;;;;;;;;;;;;;;;-149.78;100.00;50039.25;5072549;28;19932;-69
2022/06/22 00:18:52;;;;;;;;;;;;;;;-149.78;100.00;50002.09;5070034;28;20043;-69
2022/06/22 00:21:22;;;;;;;;;;;;;;;-149.78;100.00;50004.03;5071054;28;19957;-69
2022/06/22 00:23:48;;;;;;;;;;;;;;;-149.78;100.00;50013.81;5071148;28;19928;-69
2022/06/22 00:26:20;;;;;;;;;;;;;;;-149.78;100.00;50006.00;5071837;28;20275;-69
2022/06/22 00:28:52;;;;;;;;;;;;;;;-149.78;100.00;50021.63;5071765;28;19924;-69
2022/06/22 00:31:27;;;;;;;;;;;;;;;-149.78;100.00;50037.28;5071924;28;19958;-69
2022/06/22 00:34:11;;;;;;;;;;;;;;;-149.78;100.00;49990.34;5074493;28;19920;-69
2022/06/22 00:36:55;;;;;;;;;;;;;;;-149.78;100.00;49990.34;5078435;28;19932;-69
2022/06/22 00:39:20;;;;;;;;;;;;;;;-149.78;100.00;50017.72;5071027;28;19930;-69
2022/06/22 00:42:14;;;;;;;;;;;;;;;-149.78;100.00;50002.09;5073739;28;19978;-70
2022/06/22 00:45:00;;;;;;;;;;;;;;;-149.78;100.00;50017.72;5070147;28;19927;-69
2022/06/22 00:47:55;;;;;;;;;;;;;;;-149.78;100.00;50013.81;5072577;28;19927;-69
2022/06/22 00:50:23;;;;;;;;;;;;;;;-149.78;100.00;50025.56;5071991;28;19920;-69
2022/06/22 00:52:52;;;;;;;;;;;;;;;-149.78;100.00;49998.19;5072509;28;19924;-69
2022/06/22 00:55:26;;;;;;;;;;;;;;;-149.78;100.00;50017.72;5076180;28;19923;-69
2022/06/22 00:57:59;;;;;;;;;;;;;;;-149.78;100.00;50006.00;5072217;28;20424;-69
2022/06/22 01:00:26;;;;;;;;;;;;;;;-149.78;100.00;50060.75;5071804;28;20343;-69
2022/06/22 01:02:54;;;;;;;;;;;;;;;-149.78;100.00;49994.25;5072072;28;19973;-69
2022/06/22 01:05:29;;;;;;;;;;;;;;;-149.78;100.00;50049.03;5069370;28;19920;-69
2022/06/22 01:08:11;;;;;;;;;;;;;;;-149.78;100.00;50019.69;5073697;28;19924;-69
2022/06/22 01:10:57;;;;;;;;;;;;;;;-149.78;100.00;50002.09;5070976;28;19920;-69
2022/06/22 01:13:29;;;;;;;;;;;;;;;-149.78;100.00;50039.25;5060484;28;19924;-70
2022/06/22 01:15:59;;;;;;;;;;;;;;;-149.78;100.00;50017.72;5073083;28;19935;-68
2022/06/22 01:19:00;;;;;;;;;;;;;;;-149.78;100.00;50027.50;5076696;28;20473;-69
2022/06/22 01:21:33;;;;;;;;;;;;;;;-149.78;100.00;50023.59;5016254;28;19960;-69
2022/06/22 01:24:13;;;;;;;;;;;;;;;-149.78;100.00;50041.19;5063297;28;19920;-69
2022/06/22 01:26:45;;;;;;;;;;;;;;;-149.78;100.00;50009.91;5072745;28;19916;-69
2022/06/22 01:29:13;;;;;;;;;;;;;;;-149.78;100.00;50017.72;5075620;28;19924;-69
2022/06/22 01:31:43;;;;;;;;;;;;;;;-149.78;100.00;50035.34;5075760;28;19923;-69
2022/06/22 01:34:14;;;;;;;;;;;;;;;-149.78;100.00;50035.34;5075854;28;19943;-69
2022/06/22 01:36:40;;;;;;;;;;;;;;;-149.78;100.00;50021.63;5071749;28;19927;-69
2022/06/22 01:39:05;;;;;;;;;;;;;;;-149.78;100.00;50025.56;5073509;28;19924;-69
2022/06/22 01:41:37;;;;;;;;;;;;;;;-149.78;100.00;50025.56;5075552;28;19928;-69
2022/06/22 01:44:02;;;;;;;;;;;;;;;-149.78;100.00;50025.56;5072967;28;19920;-69
2022/06/22 01:46:40;;;;;;;;;;;;;;;-149.78;100.00;50072.50;5074642;28;19989;-69
2022/06/22 01:49:24;;;;;;;;;;;;;;;-149.78;100.00;50021.63;5076236;28;20000;-69
2022/06/22 01:51:55;;;;;;;;;;;;;;;-149.78;100.00;50021.63;5075939;28;19962;-69
2022/06/22 01:54:23;;;;;;;;;;;;;;;-149.78;100.00;50019.69;5074865;28;19956;-69
2022/06/22 01:56:57;;;;;;;;;;;;;;;-149.78;100.00;50045.09;5091240;28;19958;-69
2022/06/22 01:59:33;;;;;;;;;;;;;;;-149.78;100.00;50037.28;5100161;28;19931;-69
2022/06/22 02:02:08;;;;;;;;;;;;;;;-149.78;100.00;50027.50;5106649;28;19928;-69
2022/06/22 02:04:57;;;;;;;;;;;;;;;-149.78;100.00;50056.84;5104608;28;19973;-70
2022/06/22 02:07:44;;;;;;;;;;;;;;;-149.78;100.00;50017.72;5102542;28;20004;-69
2022/06/22 02:10:10;;;;;;;;;;;;;;;-149.78;100.00;50043.16;5104732;28;19919;-69
2022/06/22 02:12:37;;;;;;;;;;;;;;;-149.78;100.00;50052.94;5104156;28;19924;-69
2022/06/22 02:15:12;;;;;;;;;;;;;;;-149.78;100.00;50047.06;5104639;28;19930;-69
2022/06/22 02:17:39;;;;;;;;;;;;;;;-149.78;100.00;50076.41;5104872;28;20006;-69
2022/06/22 02:20:16;;;;;;;;;;;;;;;-149.78;100.00;50031.41;5105835;28;20001;-69
2022/06/22 02:22:42;;;;;;;;;;;;;;;-149.78;100.00;50076.41;5104842;28;19916;-69
2022/06/22 02:25:08;;;;;;;;;;;;;;;-149.78;100.00;50052.94;5105536;28;19934;-69
2022/06/22 02:27:33;;;;;;;;;;;;;;;-149.78;100.00;50080.31;5105076;28;19923;-69
2022/06/22 02:29:59;;;;;;;;;;;;;;;-149.78;100.00;50039.25;5103978;28;20395;-69
2022/06/22 02:32:30;;;;;;;;;;;;;;;-149.78;100.00;50019.69;5105787;28;19915;-70
2022/06/22 02:34:56;;;;;;;;;;;;;;;-149.78;100.00;50049.03;5103951;28;20247;-69
2022/06/22 02:37:23;;;;;;;;;;;;;;;-149.78;100.00;50060.75;5104919;28;19931;-69
2022/06/22 02:39:52;;;;;;;;;;;;;;;-149.78;100.00;50084.22;5103600;28;19915;-69
2022/06/22 02:45:04;;;;;;;;;;;;;;;-149.78;100.00;50064.66;5104451;27;19920;-69
2022/06/22 02:47:31;;;;;;;;;;;;;;;-149.78;100.00;50056.84;5083455;28;19976;-69
2022/06/22 02:50:16;;;;;;;;;;;;;;;-149.78;100.00;50029.47;5099321;28;20032;-69
2022/06/22 02:52:49;;;;;;;;;;;;;;;-149.78;100.00;50049.03;5103292;28;19935;-69
2022/06/22 02:55:19;;;;;;;;;;;;;;;-149.78;100.00;50033.38;5101041;28;20348;-69
2022/06/22 02:57:51;;;;;;;;;;;;;;;-149.78;100.00;50074.44;5105215;28;19916;-69
2022/06/22 03:00:18;;;;;;;;;;;;;;;-149.78;100.00;50060.75;5098883;28;19927;-69
2022/06/22 03:02:44;;;;;;;;;;;;;;;-149.78;100.00;50105.72;5105112;28;20413;-69
2022/06/22 03:05:11;;;;;;;;;;;;;;;-149.78;100.00;50047.06;5103344;28;19927;-69
2022/06/22 03:07:39;;;;;;;;;;;;;;;-149.78;100.00;50092.03;5101189;28;19969;-69
2022/06/22 03:10:06;;;;;;;;;;;;;;;-149.78;100.00;50060.75;5104017;28;19920;-69
2022/06/22 03:12:32;;;;;;;;;;;;;;;-149.78;100.00;50103.78;5099216;28;19984;-69
2022/06/22 03:15:00;;;;;;;;;;;;;;;-149.78;100.00;50076.41;5104889;28;19932;-69
2022/06/22 03:17:28;;;;;;;;;;;;;;;-149.78;100.00;50064.66;5100526;28;19919;-69
2022/06/22 03:19:56;;;;;;;;;;;;;;;-149.78;100.00;50084.22;5102488;28;19915;-67
2022/06/22 03:22:26;;;;;;;;;;;;;;;-149.78;100.00;50062.72;5104319;28;19954;-69
2022/06/22 03:24:57;;;;;;;;;;;;;;;-149.78;100.00;50047.06;5100984;28;19929;-69
2022/06/22 03:27:25;;;;;;;;;;;;;;;-149.78;100.00;50092.03;5099097;28;20370;-68
2022/06/22 03:29:56;;;;;;;;;;;;;;;-149.78;100.00;50068.56;5099500;28;20355;-69
2022/06/22 03:32:37;;;;;;;;;;;;;;;-149.78;100.00;50060.75;5103933;28;19986;-69
2022/06/22 03:35:06;;;;;;;;;;;;;;;-149.78;100.00;50041.19;5086541;28;19921;-69
2022/06/22 03:37:38;;;;;;;;;;;;;;;-149.78;100.00;50052.94;5099434;28;19919;-69
2022/06/22 03:40:24;;;;;;;;;;;;;;;-149.78;100.00;50097.91;5098294;28;19934;-68
2022/06/22 03:42:53;;;;;;;;;;;;;;;-149.78;100.00;50060.75;5100816;28;19947;-68
2022/06/22 03:45:28;;;;;;;;;;;;;;;-149.78;100.00;50041.19;5104426;28;20267;-69
2022/06/22 03:48:00;;;;;;;;;;;;;;;-149.78;100.00;50094.00;5097321;28;19920;-69
2022/06/22 03:50:48;;;;;;;;;;;;;;;-149.78;100.00;50076.41;5102698;28;19915;-69
2022/06/22 03:53:20;;;;;;;;;;;;;;;-149.78;100.00;50072.50;5093563;28;19916;-68
2022/06/22 03:55:47;;;;;;;;;;;;;;;-149.78;100.00;50078.34;5102507;28;19923;-68
2022/06/22 03:58:13;;;;;;;;;;;;;;;-149.78;100.00;50088.13;5101204;28;19924;-69
2022/06/22 04:00:39;;;;;;;;;;;;;;;-149.78;100.00;50082.25;5105297;28;19934;-69
2022/06/22 04:03:05;;;;;;;;;;;;;;;-149.78;100.00;50070.53;5100653;28;19926;-69
2022/06/22 04:05:33;;;;;;;;;;;;;;;-149.78;100.00;50099.88;5102887;28;20385;-69
2022/06/22 04:07:59;;;;;;;;;;;;;;;-149.78;100.00;50080.31;5095973;28;19955;-69
2022/06/22 04:10:37;;;;;;;;;;;;;;;-149.78;100.00;50049.03;5100211;28;20017;-69
2022/06/22 04:13:06;;;;;;;;;;;;;;;-149.78;100.00;50094.00;5104888;28;19926;-69
2022/06/22 04:15:34;;;;;;;;;;;;;;;-149.78;100.00;50076.41;5101211;28;19924;-69
2022/06/22 04:18:01;;;;;;;;;;;;;;;-149.78;100.00;50080.31;5104763;28;20283;-69
2022/06/22 04:20:51;;;;;;;;;;;;;;;-149.78;100.00;50097.91;5102624;28;19920;-69
2022/06/22 04:23:29;;;;;;;;;;;;;;;-149.78;100.00;50056.84;5102460;28;20030;-69
2022/06/22 04:25:58;;;;;;;;;;;;;;;-149.78;100.00;50090.09;5104663;28;19932;-69
2022/06/22 04:28:25;;;;;;;;;;;;;;;-149.78;100.00;50076.41;5100703;28;19991;-69
2022/06/22 04:30:52;;;;;;;;;;;;;;;-149.78;100.00;50056.84;5103190;28;20011;-69
2022/06/22 04:33:21;;;;;;;;;;;;;;;-149.78;100.00;50076.41;5102331;28;19916;-69
2022/06/22 04:35:55;;;;;;;;;;;;;;;-149.78;100.00;50111.59;5085516;28;19970;-69
2022/06/22 04:38:21;;;;;;;;;;;;;;;-149.78;100.00;50117.47;5075117;28;19924;-69
2022/06/22 04:40:56;;;;;;;;;;;;;;;-149.78;100.00;50105.72;5091363;28;19920;-69
2022/06/22 04:43:22;;;;;;;;;;;;;;;-149.78;100.00;50103.78;5092172;28;19955;-69
2022/06/22 04:45:48;;;;;;;;;;;;;;;-149.78;100.00;50092.03;5089492;28;20004;-69
2022/06/22 04:48:20;;;;;;;;;;;;;;;-149.78;100.00;50084.22;5079344;28;20078;-69
2022/06/22 04:50:47;;;;;;;;;;;;;;;-149.78;100.00;50064.66;5082715;28;20007;-69
2022/06/22 04:53:22;;;;;;;;;;;;;;;-149.78;100.00;50080.31;5085189;28;19943;-69
2022/06/22 04:55:49;;;;;;;;;;;;;;;-149.78;100.00;50101.81;5087732;28;19916;-69
2022/06/22 04:58:25;;;;;;;;;;;;;;;-149.78;100.00;50084.22;5099299;28;20016;-69
2022/06/22 05:00:50;;;;;;;;;;;;;;;-149.78;100.00;50072.50;5109873;28;20014;-69
2022/06/22 05:03:16;;;;;;;;;;;;;;;-149.78;100.00;50037.28;5107116;28;20002;-69
2022/06/22 05:05:41;;;;;;;;;;;;;;;-149.78;100.00;50099.88;5105476;28;19920;-69
2022/06/22 05:08:11;;;;;;;;;;;;;;;-149.78;100.00;50092.03;5106444;28;19931;-69
2022/06/22 05:10:56;;;;;;;;;;;;;;;-149.78;100.00;50078.34;5104196;28;19924;-69
2022/06/22 05:13:32;;;;;;;;;;;;;;;-149.78;100.00;50092.03;5106712;28;20278;-69
2022/06/22 05:15:58;;;;;;;;;;;;;;;-149.78;100.00;50092.03;5108105;28;19923;-69
2022/06/22 05:18:25;;;;;;;;;;;;;;;-149.78;100.00;50088.13;5105675;28;20043;-69
2022/06/22 05:21:02;;;;;;;;;;;;;;;-149.78;100.00;50084.22;5102285;28;19924;-69
2022/06/22 05:23:29;;;;;;;;;;;;;;;-149.78;100.00;50045.09;5107480;28;20018;-69
2022/06/22 05:25:57;;;;;;;;;;;;;;;-149.78;100.00;50041.19;5106972;28;19923;-69
2022/06/22 05:28:41;;;;;;;;;;;;;;;-149.78;100.00;50064.66;5099659;28;19916;-69
2022/06/22 05:31:08;;;;;;;;;;;;;;;-149.78;100.00;50043.16;5106924;28;20037;-69
2022/06/22 05:33:37;;;;;;;;;;;;;;;-149.78;100.00;50072.50;5102700;28;20304;-69
2022/06/22 05:36:06;;;;;;;;;;;;;;;-149.78;100.00;50060.75;5108260;28;19926;-69
2022/06/22 05:38:34;;;;;;;;;;;;;;;-149.78;100.00;50060.75;5102539;28;19976;-69
2022/06/22 05:41:04;;;;;;;;;;;;;;;-149.78;100.00;50060.75;5107725;28;20469;-69
2022/06/22 05:43:30;;;;;;;;;;;;;;;-149.78;100.00;50052.94;5105995;28;19920;-69
2022/06/22 05:45:57;;;;;;;;;;;;;;;-149.78;100.00;50072.50;5108595;28;20446;-69
2022/06/22 05:48:24;;;;;;;;;;;;;;;-149.78;100.00;50052.94;5100244;28;19924;-69
2022/06/22 05:50:53;;;;;;;;;;;;;;;-149.78;100.00;50049.03;5100540;28;19916;-69
2022/06/22 05:53:39;;;;;;;;;;;;;;;-149.78;100.00;50099.88;5098649;28;19916;-69
2022/06/22 05:56:37;;;;;;;;;;;;;;;-149.78;100.00;50097.91;5096721;28;20005;-69
2022/06/22 05:59:21;;;;;;;;;;;;;;;-149.78;100.00;50052.94;5074460;28;20022;-69
2022/06/22 06:01:47;;;;;;;;;;;;;;;-149.78;100.00;50025.56;5099458;28;20310;-68
2022/06/22 06:04:15;;;;;;;;;;;;;;;-149.78;100.00;50080.31;5100408;28;19934;-69
2022/06/22 06:06:41;;;;;;;;;;;;;;;-149.78;100.00;50037.28;5098054;28;19927;-69
2022/06/22 06:09:12;;;;;;;;;;;;;;;-149.78;100.00;50064.66;5094957;28;19931;-69
2022/06/22 06:11:40;;;;;;;;;;;;;;;-149.78;100.00;50025.56;5102532;28;20902;-68
2022/06/22 06:14:09;;;;;;;;;;;;;;;-149.78;100.00;50076.41;5102711;28;19920;-70
2022/06/22 06:16:46;;;;;;;;;;;;;;;-149.78;100.00;50056.84;5102442;28;19935;-69
2022/06/22 06:19:14;;;;;;;;;;;;;;;-149.78;100.00;50049.03;5107212;27;19945;-68
2022/06/22 06:21:40;;;;;;;;;;;;;;;-149.78;100.00;49996.22;5103723;28;20415;-69
2022/06/22 06:24:05;;;;;;;;;;;;;;;-149.78;100.00;50006.00;5107479;28;19924;-69
2022/06/22 06:29:34;;;;;;;;;;;;;;;-149.78;100.00;49990.34;5104208;28;19984;-69
2022/06/22 06:32:02;;;;;;;;;;;;;;;-149.78;100.00;49935.59;5096932;28;19916;-69
2022/06/22 06:34:57;;;;;;;;;;;;;;;-149.78;100.00;49966.88;5096968;28;19916;-70
2022/06/22 06:37:44;;;;;;;;;;;;;;;-149.78;100.00;49929.72;5047182;28;19924;-69
2022/06/22 06:40:14;;;;;;;;;;;;;;;-149.78;100.00;49945.38;5076774;28;19964;-70
2022/06/22 06:42:52;;;;;;;;;;;;;;;-149.78;100.00;49959.06;5082027;28;19970;-68
2022/06/22 06:45:21;;;;;;;;;;;;;;;-149.78;100.00;49914.09;5084935;28;19916;-69
2022/06/22 06:47:53;;;;;;;;;;;;;;;-149.78;93.80;49908.22;5081443;28;19942;-67
2022/06/22 06:50:32;;;;;;;;;;;;;;;-149.78;89.62;49908.22;5079111;28;19924;-68
2022/06/22 06:53:09;;;;;;;;;;;;;;;-149.78;79.29;49902.34;5083552;28;19917;-68
2022/06/22 06:55:37;;;;;;;;;;;;;;;-149.78;83.58;49900.41;5080399;28;19937;-68
2022/06/22 06:58:27;;;;;;;;;;;;;;;-149.78;75.75;49900.41;5081064;28;20299;-68
2022/06/22 07:00:53;;;;;;;;;;;;;;;-149.78;70.00;49861.28;5077323;28;19931;-68
2022/06/22 07:03:23;;;;;;;;;;;;;;;-149.78;67.76;49869.13;5078844;28;20275;-68
2022/06/22 07:05:50;;;;;;;;;;;;;;;-149.78;65.98;49861.28;5083172;28;19916;-68
2022/06/22 07:08:17;;;;;;;;;;;;;;;-149.78;65.29;49919.94;5080028;28;19935;-68
2022/06/22 07:10:47;;;;;;;;;;;;;;;-149.78;59.53;49849.56;5086156;28;19916;-69
2022/06/22 07:13:20;;;;;;;;;;;;;;;-149.78;54.92;49857.38;5081158;28;19978;-68
2022/06/22 07:15:49;;;;;;;;;;;;;;;-149.78;53.13;49826.09;5075509;28;19916;-68
2022/06/22 07:18:24;;;;;;;;;;;;;;;-149.78;53.49;49822.19;5087077;28;20256;-68
2022/06/22 07:20:54;;;;;;;;;;;;;;;-149.78;53.77;49812.41;5076110;28;19920;-68
2022/06/22 07:23:31;;;;;;;;;;;;;;;-149.78;52.22;49806.53;5076037;28;20421;-68
2022/06/22 07:26:01;;;;;;;;;;;;;;;-149.78;48.23;49785.03;5085438;28;19959;-68
2022/06/22 07:28:34;;;;;;;;;;;;;;;-149.78;45.33;49755.69;5078738;28;20275;-68
2022/06/22 07:31:20;;;;;;;;;;;;;;;-149.78;46.71;49786.97;5080034;28;20360;-67
2022/06/22 07:33:45;;;;;;;;;;;;;;;-149.78;43.88;49736.13;5077923;28;19951;-67
2022/06/22 07:36:24;;;;;;;;;;;;;;;-149.78;43.13;49708.75;5077189;28;20021;-68
2022/06/22 07:38:55;;;;;;;;;;;;;;;-149.78;42.04;49708.75;5075026;28;19916;-68
2022/06/22 07:41:23;;;;;;;;;;;;;;;-149.78;42.16;49740.06;5077363;28;19936;-68
2022/06/22 07:43:52;;;;;;;;;;;;;;;-149.78;45.36;49771.34;5072230;28;20406;-68
2022/06/22 07:46:27;;;;;;;;;;;;;;;-149.78;42.00;49738.09;5072493;28;19966;-68
2022/06/22 07:48:55;;;;;;;;;;;;;;;-149.78;41.66;49720.50;5092685;28;20279;-68
2022/06/22 07:51:23;;;;;;;;;;;;;;;-149.78;39.04;49689.22;5084386;28;19920;-68
2022/06/22 07:53:55;;;;;;;;;;;;;;;-149.78;38.83;49685.31;5074397;28;19923;-68
2022/06/22 07:56:20;;;;;;;;;;;;;;;-149.78;41.38;49697.03;5075842;28;20258;-68
2022/06/22 07:58:49;;;;;;;;;;;;;;;-149.78;46.13;49747.88;5081216;28;20002;-68
2022/06/22 08:01:18;;;;;;;;;;;;;;;-149.78;40.39;49732.22;5076935;28;19920;-68
2022/06/22 08:03:46;;;;;;;;;;;;;;;-149.78;41.77;49743.97;5075589;28;19924;-68
2022/06/22 08:06:19;;;;;;;;;;;;;;;-149.78;41.02;49747.88;5080169;28;19923;-68
2022/06/22 08:08:46;;;;;;;;;;;;;;;-149.78;40.94;49740.06;5077041;28;19922;-68
2022/06/22 08:11:19;;;;;;;;;;;;;;;-149.78;40.65;49700.94;5083055;28;20011;-68
2022/06/22 08:13:49;;;;;;;;;;;;;;;-149.78;40.21;49724.41;5089834;28;19916;-68
2022/06/22 08:16:20;;;;;;;;;;;;;;;-149.78;40.58;49712.69;5081939;28;20387;-68
2022/06/22 08:18:45;;;;;;;;;;;;;;;-149.78;40.29;49740.06;5090179;28;19916;-68
2022/06/22 08:21:14;;;;;;;;;;;;;;;-149.78;43.99;49779.16;5079231;28;19920;-68
2022/06/22 08:23:40;;;;;;;;;;;;;;;-149.78;39.79;49740.06;5072533;28;19923;-68
2022/06/22 08:26:10;;;;;;;;;;;;;;;-149.78;39.56;49689.22;5085678;28;19920;-68
2022/06/22 08:28:38;;;;;;;;;;;;;;;-149.78;38.47;49716.59;5077398;28;19920;-68
2022/06/22 08:31:04;;;;;;;;;;;;;;;-149.78;37.72;49675.53;5092577;28;19920;-68
2022/06/22 08:33:37;;;;;;;;;;;;;;;-149.78;38.20;49673.56;5073928;28;20062;-68
2022/06/22 08:36:10;;;;;;;;;;;;;;;-149.78;36.48;49626.63;5083627;28;19969;-68
2022/06/22 08:39:02;;;;;;;;;;;;;;;-149.78;35.67;49681.38;5072421;28;19926;-68
2022/06/22 08:41:43;;;;;;;;;;;;;;;-149.78;36.37;49671.63;5071512;28;19986;-68
2022/06/22 08:44:27;;;;;;;;;;;;;;;-149.78;34.75;49634.47;5090391;28;19920;-68
2022/06/22 08:47:04;;;;;;;;;;;;;;;-149.78;34.73;49626.63;5090155;28;19924;-68
2022/06/22 08:49:44;;;;;;;;;;;;;;;-149.78;34.06;49614.91;5077713;28;20012;-68
2022/06/22 08:52:19;;;;;;;;;;;;;;;-149.78;34.45;49618.81;5077997;28;19923;-68
2022/06/22 08:54:50;;;;;;;;;;;;;;;-149.78;34.67;49622.72;5080549;28;19916;-68
2022/06/22 08:57:32;;;;;;;;;;;;;;;-149.78;36.07;49655.97;5092640;28;19988;-68
2022/06/22 08:59:57;;;;;;;;;;;;;;;-149.78;34.85;49605.13;5078479;28;19920;-68
2022/06/22 09:02:36;;;;;;;;;;;;;;;-149.78;34.82;49638.38;5083197;28;19962;-68
2022/06/22 09:05:01;;;;;;;;;;;;;;;-149.78;35.55;49657.94;5097151;28;19966;-68
2022/06/22 09:07:36;;;;;;;;;;;;;;;-149.78;35.12;49607.09;5091596;28;19922;-68
2022/06/22 09:10:37;;;;;;;;;;;;;;;-149.78;34.69;49626.63;5073191;28;19916;-68
2022/06/22 09:13:25;;;;;;;;;;;;;;;-149.78;34.01;49618.81;5049037;28;19917;-68
2022/06/22 09:16:13;;;;;;;;;;;;;;;-149.78;34.58;49622.72;5067599;28;20024;-68
2022/06/22 09:18:57;;;;;;;;;;;;;;;-149.78;34.45;49607.09;5065079;28;20275;-68
2022/06/22 09:21:42;;;;;;;;;;;;;;;-149.78;33.27;49661.84;5083829;28;19920;-69
2022/06/22 09:24:14;;;;;;;;;;;;;;;-149.78;34.17;49626.63;5073348;28;19923;-68
2022/06/22 09:27:15;;;;;;;;;;;;;;;-149.78;32.76;49603.19;5085933;28;19939;-69
2022/06/22 09:29:44;;;;;;;;;;;;;;;-149.78;34.32;49612.94;5018695;28;19932;-68
2022/06/22 09:32:30;;;;;;;;;;;;;;;-149.78;33.50;49575.81;5068062;28;19920;-69
2022/06/22 09:35:12;;;;;;;;;;;;;;;-149.78;33.27;49599.25;5085178;28;19916;-69
2022/06/22 09:37:57;;;;;;;;;;;;;;;-149.78;32.52;49564.06;5080922;28;19923;-69
2022/06/22 09:40:58;;;;;;;;;;;;;;;-149.78;32.48;49564.06;5076067;28;19969;-69
2022/06/22 09:43:40;;;;;;;;;;;;;;;-149.78;31.68;49583.63;5072996;28;19956;-69
2022/06/22 09:46:14;;;;;;;;;;;;;;;-149.78;31.95;49569.94;5076158;28;19925;-69
2022/06/22 09:48:40;;;;;;;;;;;;;;;-149.78;32.72;49595.34;5087958;28;20338;-68
2022/06/22 09:51:05;;;;;;;;;;;;;;;-149.78;36.40;49661.84;5076922;28;20011;-68
2022/06/22 09:53:45;;;;;;;;;;;;;;;-149.78;39.06;49716.59;5075230;28;19916;-69
2022/06/22 09:56:20;;;;;;;;;;;;;;;-149.78;43.47;49736.13;5076398;28;20311;-68
2022/06/22 09:58:45;;;;;;;;;;;;;;;-149.78;47.35;49767.44;5086653;28;19970;-68
2022/06/22 10:01:29;;;;;;;;;;;;;;;-149.78;47.80;49833.91;5076476;28;19920;-68
2022/06/22 10:03:55;;;;;;;;;;;;;;;-149.78;47.58;49779.16;5088742;28;19926;-68
2022/06/22 10:06:35;;;;;;;;;;;;;;;-149.78;44.75;49734.19;5087026;28;20267;-68
2022/06/22 10:09:20;;;;;;;;;;;;;;;-149.78;44.37;49751.78;5081437;28;19920;-68
2022/06/22 10:11:46;;;;;;;;;;;;;;;-149.78;43.32;49763.53;5087842;28;19926;-68
2022/06/22 10:14:14;;;;;;;;;;;;;;;-149.78;42.02;49720.50;5081698;28;19920;-68
2022/06/22 10:16:42;;;;;;;;;;;;;;;-149.78;46.47;49763.53;5081150;28;19939;-68
2022/06/22 10:19:26;;;;;;;;;;;;;;;-149.78;49.57;49736.13;5086756;28;19927;-68
2022/06/22 10:22:14;;;;;;;;;;;;;;;-149.78;47.16;49810.44;5091563;28;19922;-68
2022/06/22 10:24:55;;;;;;;;;;;;;;;-149.78;47.51;49765.47;5081806;28;20004;-68
2022/06/22 10:27:26;;;;;;;;;;;;;;;-149.78;49.03;49802.63;5075127;28;19978;-68
2022/06/22 10:29:58;;;;;;;;;;;;;;;-149.78;49.30;49808.50;5085147;28;19925;-68
2022/06/22 10:32:30;;;;;;;;;;;;;;;-149.78;49.80;49800.66;5092683;28;19920;-68
2022/06/22 10:35:00;;;;;;;;;;;;;;;-149.78;50.28;49794.81;5088402;28;20022;-68
2022/06/22 10:38:04;;;;;;;;;;;;;;;-149.78;49.89;49775.25;5075823;28;20418;-68
2022/06/22 10:46:21;;;;;;;;;;;;;;;-149.78;44.82;49759.59;5071337;28;19995;-69
2022/06/22 10:48:53;;;;;;;;;;;;;;;-149.78;46.63;49814.34;5075084;28;19917;-69
2022/06/22 10:51:37;;;;;;;;;;;;;;;-149.78;49.55;49794.81;5079422;28;19926;-70
2022/06/22 10:54:08;;;;;;;;;;;;;;;-149.78;48.36;49771.34;5076155;28;19939;-70
2022/06/22 10:56:34;;;;;;;;;;;;;;;-149.78;46.42;49763.53;5076639;28;19916;-70
2022/06/22 10:59:05;;;;;;;;;;;;;;;-149.78;47.23;49740.06;5081975;28;19969;-70
2022/06/22 11:01:43;;;;;;;;;;;;;;;-149.78;46.29;49802.63;5087992;28;19916;-69
2022/06/22 11:04:27;;;;;;;;;;;;;;;-149.78;49.05;49755.69;5094314;28;20355;-69
2022/06/22 11:06:54;;;;;;;;;;;;;;;-149.78;46.54;49822.19;5089470;28;20264;-69
2022/06/22 11:09:41;;;;;;;;;;;;;;;-149.78;47.56;49794.81;5073839;28;19917;-70
2022/06/22 11:12:22;;;;;;;;;;;;;;;-149.78;47.34;49767.44;5089832;28;19920;-68
2022/06/22 11:15:06;;;;;;;;;;;;;;;-149.78;45.05;49732.22;5082677;28;20300;-70
2022/06/22 11:17:31;;;;;;;;;;;;;;;-149.78;42.71;49724.41;5080811;28;19916;-70
2022/06/22 11:20:15;;;;;;;;;;;;;;;-149.78;43.93;49749.81;5078428;28;20372;-69
2022/06/22 11:22:42;;;;;;;;;;;;;;;-149.78;41.60;49730.28;5080432;28;19927;-69
2022/06/22 11:25:07;;;;;;;;;;;;;;;-149.78;42.61;49732.22;5085721;28;19925;-70
2022/06/22 11:33:14;;;;;;;;;;;;;;;-149.78;38.95;49734.19;5080063;28;20286;-70
2022/06/22 11:36:00;;;;;;;;;;;;;;;-149.78;41.63;49761.56;5084053;28;19970;-69
2022/06/22 11:38:26;;;;;;;;;;;;;;;-149.78;44.74;49775.25;5078103;28;19916;-69
2022/06/22 11:40:51;;;;;;;;;;;;;;;-149.78;44.75;49786.97;5073322;28;20287;-69
2022/06/22 11:43:22;;;;;;;;;;;;;;;-149.78;47.96;49743.97;5085869;28;19965;-69
2022/06/22 11:45:54;;;;;;;;;;;;;;;-149.78;46.99;49786.97;5085803;28;19916;-69
2022/06/22 11:48:54;;;;;;;;;;;;;;;-149.78;44.49;49763.53;5082128;28;19947;-69
2022/06/22 11:51:39;;;;;;;;;;;;;;;-149.78;43.51;49779.16;5073596;28;20383;-69
2022/06/22 11:54:23;;;;;;;;;;;;;;;-149.78;44.03;49775.25;5073490;28;19983;-70
2022/06/22 11:57:00;;;;;;;;;;;;;;;-149.78;42.21;49775.25;5076946;28;19923;-69
2022/06/22 11:59:45;;;;;;;;;;;;;;;-149.78;42.21;49775.25;5078431;28;19917;-69
2022/06/22 12:02:10;;;;;;;;;;;;;;;-149.78;44.39;49767.44;5078785;28;19920;-69
2022/06/22 12:04:45;;;;;;;;;;;;;;;-149.78;42.37;49767.44;5084667;28;19921;-69
2022/06/22 12:07:10;;;;;;;;;;;;;;;-149.78;42.01;49775.25;5073973;28;19924;-69
2022/06/22 12:09:46;;;;;;;;;;;;;;;-149.78;41.11;49738.09;5072930;28;20011;-70
2022/06/22 12:12:30;;;;;;;;;;;;;;;-149.78;42.05;49755.69;5073606;28;19928;-70
2022/06/22 12:15:05;;;;;;;;;;;;;;;-149.78;39.54;49759.59;5075875;28;19917;-69
2022/06/22 12:17:36;;;;;;;;;;;;;;;-149.78;38.51;49740.06;5078688;28;19917;-69
2022/06/22 12:20:01;;;;;;;;;;;;;;;-149.78;37.16;49710.72;5080895;28;19969;-69
2022/06/22 12:22:38;;;;;;;;;;;;;;;-149.78;35.54;49724.41;5084640;28;19920;-69
2022/06/22 12:25:30;;;;;;;;;;;;;;;-149.78;36.92;49724.41;5085709;28;19924;-70
2022/06/22 12:28:01;;;;;;;;;;;;;;;-149.78;34.80;49716.59;5078422;28;19923;-69
2022/06/22 12:30:37;;;;;;;;;;;;;;;-149.78;34.18;49689.22;5085564;28;20255;-70
2022/06/22 12:33:22;;;;;;;;;;;;;;;-149.78;34.55;49710.72;5084856;28;19920;-70
2022/06/22 12:35:55;;;;;;;;;;;;;;;-149.78;36.22;49728.31;5085287;28;20011;-70
2022/06/22 12:38:24;;;;;;;;;;;;;;;-149.78;33.73;49720.50;5077883;28;19916;-70
2022/06/22 12:40:54;;;;;;;;;;;;;;;-149.78;33.98;49724.41;5075766;28;19927;-70
2022/06/22 12:43:38;;;;;;;;;;;;;;;-149.78;35.47;49710.72;5073481;28;20355;-70
2022/06/22 12:46:10;;;;;;;;;;;;;;;-149.78;36.18;49740.06;5080144;28;19928;-70
2022/06/22 12:48:56;;;;;;;;;;;;;;;-149.78;36.21;49757.66;5090907;28;19991;-70
2022/06/22 12:51:32;;;;;;;;;;;;;;;-149.78;36.38;49724.41;5086305;28;20023;-70
2022/06/22 12:53:57;;;;;;;;;;;;;;;-149.78;35.96;49718.53;5072663;28;19924;-70
2022/06/22 12:56:36;;;;;;;;;;;;;;;-149.78;36.00;49747.88;5080776;28;20386;-70
2022/06/22 12:59:01;;;;;;;;;;;;;;;-149.78;36.25;49771.34;5082610;28;19916;-70
2022/06/22 13:01:27;;;;;;;;;;;;;;;-149.78;36.31;49771.34;5079446;28;20321;-70
2022/06/22 13:04:06;;;;;;;;;;;;;;;-149.78;38.07;49747.88;5076881;28;19929;-71
2022/06/22 13:06:33;;;;;;;;;;;;;;;-149.78;38.46;49736.13;5079523;28;19962;-70
2022/06/22 13:08:59;;;;;;;;;;;;;;;-149.78;37.91;49736.13;5073050;28;19916;-70